»·PEaware :: SWA277 KAUS-KHRL

SWA277 :: KAUS-KHRL

FLIGHT INFORMATION

Flight Status: Arrived
Operator:
Southwest Airlines
More flights by this operator :: More flights under this callsign
Pilot: Andrew J. (13363)
Aircraft: BOEING 737-300
(B733)
More flights by this aircraft type
Origin: KAUS Austin Bergstrom Intl
United States
Destination: KHRL Valley Intl
United States
More flights between these airports :: More routes between these airports
Route: BNDIA1 BNDIA ICEMN HRL
File this flight plan on PilotEdge
Remarks:
Altitude:
(Current/Filed)
35,000ft
Speed:
(Current/Filed)
460kts
Departed: 02-Jun-17 09:32 AM
Arrived: 02-Jun-17 10:33 AM
Distance/Time
Traveled:
238nm/1:01
Distance/Time
To Go:
Arrived

Flight Plot

Page will automatically refresh every two minutes.

Flight plan parsing failed; only flown route is shown


Map Options




Map Legend


Flown Route
Filed Route
Departure Airport
Arrival Airport
Navaid (VOR, NDB)
Fix

Horizontal Profiles

Position Reports

Time Latitude Longitude Heading Altitude Ground
Speed
02-Jun-17 09:21 30.201272 -97.666734 357 548ft 0kts
02-Jun-17 09:22 30.201272 -97.666734 357 548ft 0kts
02-Jun-17 09:23 30.201272 -97.666734 357 548ft 0kts
02-Jun-17 09:24 30.201252 -97.666733 357 548ft 0kts
02-Jun-17 09:25 30.200705 -97.666707 358 548ft 0kts
02-Jun-17 09:26 30.200465 -97.666702 358 548ft 0kts
02-Jun-17 09:27 30.200465 -97.666702 358 548ft 0kts
02-Jun-17 09:28 30.200484 -97.666703 358 548ft 1kts
02-Jun-17 09:29 30.200961 -97.668772 284 548ft 9kts
02-Jun-17 09:30 30.200951 -97.672692 268 548ft 14kts
02-Jun-17 09:31 30.205043 -97.673413 359 548ft 17kts
02-Jun-17 09:32 30.210193 -97.674595 344 548ft 20kts
02-Jun-17 09:33 30.213505 -97.678204 266 548ft 14kts
02-Jun-17 09:34 30.200387 -97.679001 177 548ft 140kts
02-Jun-17 09:35 30.158927 -97.695165 244 1994ft 200kts
02-Jun-17 09:36 30.133498 -97.756035 244 4230ft 235kts
02-Jun-17 09:37 30.101107 -97.831527 243 6484ft 285kts
02-Jun-17 09:38 30.065807 -97.915047 243 9651ft 297kts
02-Jun-17 09:39 30.011485 -97.998582 226 11354ft 358kts
02-Jun-17 09:40 29.944247 -98.083577 226 14389ft 368kts
02-Jun-17 09:41 29.876694 -98.168923 227 17155ft 378kts
02-Jun-17 09:42 29.805199 -98.259063 228 19776ft 387kts
02-Jun-17 09:43 29.732143 -98.351112 228 22171ft 397kts
02-Jun-17 09:44 29.654894 -98.442226 211 24336ft 408kts
02-Jun-17 09:45 29.541874 -98.449175 176 26209ft 427kts
02-Jun-17 09:46 29.423334 -98.434582 177 27912ft 436kts
02-Jun-17 09:47 29.304496 -98.420346 177 30119ft 429kts
02-Jun-17 09:48 29.186753 -98.406298 178 31960ft 426kts
02-Jun-17 09:49 29.070078 -98.392405 178 33626ft 422kts
02-Jun-17 09:50 28.954555 -98.378686 178 34953ft 421kts
02-Jun-17 09:51 28.839822 -98.365087 178 34999ft 421kts
02-Jun-17 09:52 28.724087 -98.351409 178 34995ft 421kts
02-Jun-17 09:53 28.607635 -98.337673 178 34995ft 421kts
02-Jun-17 09:54 28.493337 -98.308319 170 34968ft 427kts
02-Jun-17 09:55 28.379190 -98.274359 170 34968ft 426kts
02-Jun-17 09:56 28.264557 -98.240510 170 34983ft 425kts
02-Jun-17 09:57 28.152952 -98.207628 170 34955ft 418kts
02-Jun-17 09:58 28.040597 -98.174601 170 34971ft 420kts
02-Jun-17 09:59 27.928612 -98.141750 170 34965ft 420kts
02-Jun-17 10:00 27.824796 -98.111405 170 34972ft 420kts
02-Jun-17 10:01 27.712412 -98.078580 170 34941ft 420kts
02-Jun-17 10:02 27.600284 -98.045895 170 34941ft 420kts
02-Jun-17 10:03 27.487634 -98.013126 170 34941ft 420kts
02-Jun-17 10:04 27.375888 -97.980686 170 34966ft 420kts
02-Jun-17 10:05 27.267274 -97.935769 140 33059ft 452kts
02-Jun-17 10:06 27.230679 -97.802563 93 30501ft 466kts
02-Jun-17 10:07 27.227947 -97.657428 93 27584ft 470kts
02-Jun-17 10:08 27.224503 -97.512184 93 24992ft 458kts
02-Jun-17 10:09 27.221285 -97.379064 92 23431ft 413kts
02-Jun-17 10:10 27.217633 -97.254152 93 21042ft 398kts
02-Jun-17 10:11 27.213233 -97.132792 93 18754ft 382kts
02-Jun-17 10:12 27.208482 -97.016029 93 16516ft 368kts
02-Jun-17 10:13 27.204140 -96.904729 92 14360ft 354kts
02-Jun-17 10:14 27.180112 -96.809161 137 13253ft 307kts
02-Jun-17 10:15 27.109016 -96.810753 221 11801ft 285kts
02-Jun-17 10:16 27.053971 -96.872852 232 10176ft 279kts
02-Jun-17 10:17 27.008413 -96.941801 233 8637ft 272kts
02-Jun-17 10:18 26.965372 -97.007989 233 7656ft 261kts
02-Jun-17 10:19 26.924202 -97.071863 233 6631ft 248kts
02-Jun-17 10:20 26.884716 -97.132868 233 6023ft 248kts
02-Jun-17 10:21 26.844395 -97.194418 233 5478ft 246kts
02-Jun-17 10:22 26.804516 -97.255368 233 4937ft 244kts
02-Jun-17 10:23 26.765071 -97.315708 233 4399ft 244kts
02-Jun-17 10:24 26.725618 -97.376115 233 3868ft 242kts
02-Jun-17 10:25 26.686637 -97.435848 233 3337ft 237kts
02-Jun-17 10:26 26.647730 -97.491551 223 2759ft 228kts
02-Jun-17 10:27 26.602467 -97.539511 223 2282ft 227kts
02-Jun-17 10:28 26.553900 -97.583030 213 1881ft 224kts
02-Jun-17 10:29 26.501391 -97.620547 213 1919ft 227kts
02-Jun-17 10:30 26.448913 -97.655360 193 1901ft 228kts
02-Jun-17 10:31 26.387179 -97.657601 178 1946ft 207kts
02-Jun-17 10:32 26.334252 -97.657409 180 1904ft 189kts
02-Jun-17 10:33 26.285420 -97.658023 180 1019ft 155kts
02-Jun-17 10:34 26.249390 -97.658423 180 229ft 150kts
02-Jun-17 10:35 26.218696 -97.659237 221 43ft 25kts
02-Jun-17 10:36 26.220284 -97.660454 358 43ft 15kts
02-Jun-17 10:37 26.224329 -97.661107 267 43ft 7kts
02-Jun-17 10:38 26.224332 -97.661284 272 43ft 0kts
02-Jun-17 10:39 26.224332 -97.661284 272 43ft 0kts
02-Jun-17 10:40 26.224332 -97.661284 272 43ft 0kts
02-Jun-17 10:41 26.224332 -97.661284 272 43ft 0kts
02-Jun-17 10:42 26.224332 -97.661284 272 43ft 0kts
02-Jun-17 10:43 26.224332 -97.661284 272 43ft 0kts
02-Jun-17 10:44 26.224332 -97.661284 272 43ft 0kts
02-Jun-17 10:45 26.224332 -97.661284 272 43ft 0kts
02-Jun-17 10:46 26.224332 -97.661284 272 43ft 0kts
02-Jun-17 10:47 26.224332 -97.661284 272 43ft 0kts
02-Jun-17 10:48 26.224332 -97.661284 272 43ft 0kts
02-Jun-17 10:49 26.224332 -97.661284 272 43ft 0kts

Navigation Log

Ident Type
Flight plan parsing failed, navigation log unavailable